Moselle, Missouri
Current Conditions -  °F | °C
As of 4:55 AM on Wednesday 26 Nov 2014 (Local Time) from KFYG Reporting Station
Broken Clouds Broken Clouds  
Wind Chill: 26°   Ceiling: 11000
Heat Index: 32°   Visibility: 10mi
Dew Point: 25°   Wind: 6mph
Humidity: 75%   Direction: 140°SE
Pressure: 30.05"   Gusts: NA
Location:  38.4268°N, 91.0473°W
Report Text: KFYG 261055Z AUTO 14005KT 10SM BKN110 00/M04 A3005 RMK AO2
Loading
Personal Weather Stations






























Interactive Weather Map New forecast layout! Learn more

10-Day Weather Forecast

Advertisements
Track Severe Weather on mobile